createdAt,value
2018-09-10T00:01:31.172Z,2.50
2018-09-10T00:03:59.946Z,2.30
2018-09-10T00:06:29.000Z,2.10
2018-09-10T00:08:57.816Z,2.17
2018-09-10T00:11:26.654Z,2.33
2018-09-10T00:13:55.520Z,2.20
2018-09-10T00:16:24.685Z,2.30
2018-09-10T00:18:53.484Z,2.30
2018-09-10T00:21:22.283Z,2.30
2018-09-10T00:23:51.111Z,2.20
2018-09-10T00:26:20.292Z,2.17
2018-09-10T00:28:49.099Z,1.90
2018-09-10T00:31:17.884Z,2.53
2018-09-10T00:33:47.852Z,2.10
2018-09-10T00:36:16.816Z,2.27
2018-09-10T00:38:45.707Z,2.13
2018-09-10T00:41:14.690Z,2.40
2018-09-10T00:43:43.960Z,2.40
2018-09-10T00:46:12.719Z,2.00
2018-09-10T00:48:41.661Z,2.20
2018-09-10T00:51:10.889Z,2.30
2018-09-10T00:53:39.747Z,2.30
2018-09-10T00:56:08.548Z,2.10
2018-09-10T00:58:37.499Z,3.83
2018-09-10T01:01:06.430Z,4.70
2018-09-10T01:03:35.334Z,4.50
2018-09-10T01:06:04.128Z,3.50
2018-09-10T01:08:33.111Z,3.47
2018-09-10T01:11:02.325Z,2.60
2018-09-10T01:13:31.183Z,2.30
2018-09-10T01:16:00.016Z,2.60
2018-09-10T01:18:28.938Z,2.30
2018-09-10T01:20:58.296Z,2.23
2018-09-10T01:23:27.159Z,2.30
2018-09-10T01:25:56.044Z,2.13
2018-09-10T01:28:24.912Z,2.40
2018-09-10T01:30:54.420Z,2.23
2018-09-10T01:33:28.812Z,2.40
2018-09-10T01:35:58.311Z,2.20
2018-09-10T01:38:27.175Z,2.40
2018-09-10T01:40:56.416Z,2.20
2018-09-10T01:43:25.212Z,2.20
2018-09-10T01:45:54.106Z,2.27
2018-09-10T01:48:23.051Z,2.40
2018-09-10T01:50:51.827Z,2.20
2018-09-10T01:53:20.633Z,2.70
2018-09-10T01:55:49.513Z,2.60
2018-09-10T01:58:18.307Z,2.20
2018-09-10T02:00:47.103Z,2.37
2018-09-10T02:03:15.896Z,2.50
2018-09-10T02:05:44.727Z,2.67
2018-09-10T02:08:13.567Z,2.73
2018-09-10T02:10:42.686Z,2.70
2018-09-10T02:13:11.472Z,2.50
2018-09-10T02:15:45.812Z,2.33
2018-09-10T02:18:14.625Z,2.47
2018-09-10T02:20:43.504Z,2.80
2018-09-10T02:23:12.337Z,2.60
2018-09-10T02:25:41.455Z,2.60
2018-09-10T02:28:11.612Z,2.50
2018-09-10T02:30:40.763Z,2.67
2018-09-10T02:33:09.541Z,2.60
2018-09-10T02:35:39.408Z,2.70
2018-09-10T02:38:09.239Z,2.90
2018-09-10T02:40:38.023Z,2.73
2018-09-10T02:43:06.791Z,2.87
2018-09-10T02:45:35.579Z,2.80
2018-09-10T02:48:04.468Z,2.87
2018-09-10T02:50:33.259Z,2.87
2018-09-10T02:53:02.524Z,2.87
2018-09-10T02:55:31.311Z,2.73
2018-09-10T02:58:00.088Z,2.87
2018-09-10T03:00:29.478Z,3.00
2018-09-10T03:02:58.300Z,2.97
2018-09-10T03:05:27.109Z,2.73
2018-09-10T03:07:55.900Z,2.77
2018-09-10T03:10:24.707Z,2.63
2018-09-10T03:12:54.467Z,2.53
2018-09-10T03:15:23.511Z,2.90
2018-09-10T03:17:53.105Z,2.90
2018-09-10T03:20:21.999Z,2.97
2018-09-10T03:22:50.783Z,2.87
2018-09-10T03:25:19.589Z,3.13
2018-09-10T03:27:48.385Z,2.80
2018-09-10T03:30:17.166Z,2.90
2018-09-10T03:32:45.935Z,3.00
2018-09-10T03:35:14.723Z,3.20
2018-09-10T03:37:43.524Z,3.20
2018-09-10T03:40:12.292Z,3.40
2018-09-10T03:42:41.101Z,2.90
2018-09-10T03:45:09.879Z,3.20
2018-09-10T03:47:38.676Z,3.20
2018-09-10T03:50:07.452Z,3.43
2018-09-10T03:52:36.227Z,3.20
2018-09-10T03:55:05.052Z,3.20
2018-09-10T03:57:33.921Z,3.50
2018-09-10T04:00:02.709Z,4.00
2018-09-10T04:02:31.504Z,3.33
2018-09-10T04:05:00.331Z,3.53
2018-09-10T04:07:29.118Z,3.30
2018-09-10T04:09:57.995Z,3.87
2018-09-10T04:12:26.788Z,3.50
2018-09-10T04:14:55.587Z,3.20
2018-09-10T04:17:24.389Z,3.60
2018-09-10T04:20:10.984Z,3.20
2018-09-10T04:22:41.037Z,3.70
2018-09-10T04:25:09.828Z,3.77
2018-09-10T04:27:38.887Z,3.80
2018-09-10T04:30:11.540Z,3.80
2018-09-10T04:32:40.352Z,3.60
2018-09-10T04:35:09.663Z,3.73
2018-09-10T04:37:38.890Z,3.77
2018-09-10T04:40:07.969Z,3.73
2018-09-10T04:42:36.770Z,3.30
2018-09-10T04:45:05.899Z,3.60
2018-09-10T04:47:34.704Z,3.80
2018-09-10T04:50:03.508Z,3.87
2018-09-10T04:52:32.351Z,4.03
2018-09-10T04:55:01.167Z,4.23
2018-09-10T04:57:29.962Z,4.30
2018-09-10T04:59:58.755Z,3.80
2018-09-10T05:02:29.646Z,4.23
2018-09-10T05:04:58.869Z,4.20
2018-09-10T05:07:27.639Z,4.63
2018-09-10T05:09:56.451Z,4.17
2018-09-10T05:12:25.237Z,3.80
2018-09-10T05:14:54.020Z,4.40
2018-09-10T05:17:22.833Z,4.13
2018-09-10T05:19:51.608Z,4.10
2018-09-10T05:22:20.400Z,4.03
2018-09-10T05:24:49.188Z,3.97
2018-09-10T05:27:17.960Z,4.43
2018-09-10T05:29:46.743Z,4.07
2018-09-10T05:32:15.793Z,4.40
2018-09-10T05:34:44.560Z,4.00
2018-09-10T05:37:13.345Z,4.20
2018-09-10T05:39:42.168Z,4.17
2018-09-10T05:42:10.961Z,4.40
2018-09-10T05:44:39.750Z,4.20
2018-09-10T05:47:08.783Z,4.67
2018-09-10T05:49:37.640Z,4.90
2018-09-10T05:52:06.511Z,7.57
2018-09-10T05:57:26.931Z,4.53
2018-09-10T05:59:55.819Z,4.10
2018-09-10T06:02:24.612Z,16.63
2018-09-10T06:04:53.493Z,10.73
2018-09-10T06:07:22.388Z,9.10
2018-09-10T06:09:51.171Z,7.93
2018-09-10T06:12:20.087Z,6.47
2018-09-10T06:14:50.986Z,6.40
2018-09-10T06:17:19.758Z,6.27
2018-09-10T06:19:48.552Z,5.43
2018-09-10T06:22:17.329Z,5.17
2018-09-10T06:24:46.089Z,5.10
2018-09-10T06:27:14.868Z,4.47
2018-09-10T06:29:43.651Z,4.43
2018-09-10T06:32:12.682Z,4.80
2018-09-10T06:34:41.456Z,4.80
2018-09-10T06:37:10.341Z,4.77
2018-09-10T06:39:39.333Z,5.23
2018-09-10T06:42:08.180Z,5.40
2018-09-10T06:44:36.968Z,5.50
2018-09-10T06:47:05.853Z,4.73
2018-09-10T06:49:34.599Z,5.37
2018-09-10T06:52:03.366Z,4.93
2018-09-10T06:54:32.143Z,5.20
2018-09-10T06:57:00.904Z,5.40
2018-09-10T06:59:29.711Z,5.80
2018-09-10T07:01:58.509Z,7.03
2018-09-10T07:04:27.640Z,6.80
2018-09-10T07:06:56.395Z,6.80
2018-09-10T07:09:25.239Z,14.97
2018-09-10T07:11:54.295Z,10.23
2018-09-10T07:14:23.075Z,10.60
2018-09-10T07:16:51.979Z,5.20
2018-09-10T07:19:20.763Z,4.70
2018-09-10T07:21:49.579Z,4.63
2018-09-10T07:24:18.696Z,4.60
2018-09-10T07:26:47.491Z,4.43
2018-09-10T07:29:16.263Z,5.50
2018-09-10T07:31:45.044Z,5.13
2018-09-10T07:34:13.828Z,4.77
2018-09-10T07:36:42.596Z,5.40
2018-09-10T07:39:12.458Z,5.33
2018-09-10T07:41:41.247Z,5.40
2018-09-10T07:44:10.042Z,4.90
2018-09-10T07:46:38.877Z,4.60
2018-09-10T07:49:07.655Z,4.50
2018-09-10T07:51:36.403Z,4.10
2018-09-10T07:54:05.439Z,4.20
2018-09-10T07:56:34.272Z,4.10
2018-09-10T07:59:04.927Z,4.13
2018-09-10T08:01:33.792Z,4.50
2018-09-10T08:04:02.647Z,4.23
2018-09-10T08:06:31.451Z,4.70
2018-09-10T08:09:00.253Z,4.20
2018-09-10T08:11:29.407Z,4.30
2018-09-10T08:13:58.190Z,4.37
2018-09-10T08:16:26.999Z,3.93
2018-09-10T08:18:56.384Z,4.30
2018-09-10T08:21:25.196Z,3.80
2018-09-10T08:23:53.984Z,3.83
2018-09-10T08:26:22.787Z,4.17
2018-09-10T08:28:51.572Z,3.87
2018-09-10T08:31:20.351Z,3.30
2018-09-10T08:33:49.100Z,3.27
2018-09-10T08:36:17.936Z,3.03
2018-09-10T08:38:46.719Z,2.90
2018-09-10T08:41:15.688Z,3.63
2018-09-10T08:43:44.907Z,2.60
2018-09-10T08:46:14.575Z,2.50
2018-09-10T08:48:44.773Z,2.80
2018-09-10T08:51:14.687Z,2.57
2018-09-10T08:53:44.363Z,2.40
2018-09-10T08:56:15.262Z,2.87
2018-09-10T08:58:45.245Z,2.70
2018-09-10T09:01:15.017Z,2.60
2018-09-10T09:03:44.447Z,3.00
2018-09-10T09:06:14.273Z,2.57
2018-09-10T09:08:44.148Z,2.60
2018-09-10T09:11:13.122Z,2.37
2018-09-10T09:16:33.316Z,2.60
2018-09-10T09:19:02.088Z,2.20
2018-09-10T09:21:32.035Z,2.90
2018-09-10T09:24:00.839Z,1.90
2018-09-10T09:26:30.000Z,1.60
2018-09-10T09:28:58.872Z,1.50
2018-09-10T09:31:27.663Z,1.57
2018-09-10T09:33:56.483Z,2.00
2018-09-10T09:36:30.628Z,2.00
2018-09-10T09:39:04.831Z,1.63
2018-09-10T09:41:39.080Z,1.70
2018-09-10T09:44:13.637Z,2.17
2018-09-10T09:46:42.408Z,2.17
2018-09-10T09:49:11.187Z,1.50
2018-09-10T09:51:39.954Z,1.30
2018-09-10T09:54:08.712Z,1.53
2018-09-10T09:56:37.613Z,1.47
2018-09-10T09:59:08.549Z,1.50
2018-09-10T10:01:40.375Z,1.47
2018-09-10T10:04:11.112Z,1.20
2018-09-10T10:06:39.829Z,1.10
2018-09-10T10:09:09.992Z,1.27
2018-09-10T10:11:39.378Z,1.40
2018-09-10T10:14:08.499Z,1.70
2018-09-10T10:16:37.468Z,1.40
2018-09-10T10:19:06.400Z,1.33
2018-09-10T10:21:35.248Z,1.40
2018-09-10T10:24:04.332Z,1.43
2018-09-10T10:26:33.127Z,0.80
2018-09-10T10:29:01.916Z,1.50
2018-09-10T10:31:30.679Z,0.90
2018-09-10T10:33:59.754Z,1.53
2018-09-10T10:36:28.540Z,1.23
2018-09-10T10:38:57.313Z,1.43
2018-09-10T10:41:26.217Z,1.60
2018-09-10T10:43:55.081Z,2.00
2018-09-10T10:46:23.880Z,2.07
2018-09-10T10:48:52.676Z,1.60
2018-09-10T10:51:21.724Z,1.60
2018-09-10T10:53:50.556Z,2.20
2018-09-10T10:56:19.300Z,4.37
2018-09-10T10:58:48.256Z,3.27
2018-09-10T11:01:17.105Z,2.40
2018-09-10T11:03:45.883Z,1.60
2018-09-10T11:06:14.680Z,1.90
2018-09-10T11:08:43.703Z,1.93
2018-09-10T11:11:12.467Z,2.07
2018-09-10T11:13:41.257Z,1.83
2018-09-10T11:16:10.168Z,1.90
2018-09-10T11:18:38.945Z,2.10
2018-09-10T11:21:07.847Z,2.20
2018-09-10T11:23:36.808Z,4.20
2018-09-10T11:26:05.584Z,1.80
2018-09-10T11:28:34.380Z,1.60
2018-09-10T11:31:03.151Z,1.80
2018-09-10T11:33:31.920Z,1.80
2018-09-10T11:36:00.684Z,2.40
2018-09-10T11:38:29.488Z,2.20
2018-09-10T11:40:58.356Z,3.77
2018-09-10T11:43:27.208Z,2.10
2018-09-10T11:45:56.017Z,2.15
2018-09-10T11:48:24.824Z,1.85
2018-09-10T11:50:54.019Z,2.72
2018-09-10T11:53:22.786Z,3.42
2018-09-10T11:55:51.587Z,2.58
2018-09-10T11:58:20.368Z,2.00
2018-09-10T12:00:49.222Z,2.47
2018-09-10T12:03:17.996Z,2.15
2018-09-10T12:05:46.812Z,3.05
2018-09-10T12:08:15.599Z,4.12
2018-09-10T12:10:44.427Z,3.67
2018-09-10T12:13:13.404Z,3.55
2018-09-10T12:15:42.176Z,2.15
2018-09-10T12:18:11.246Z,2.85
2018-09-10T12:20:40.059Z,5.08
2018-09-10T12:23:08.845Z,1.80
2018-09-10T12:25:37.711Z,1.98
2018-09-10T12:28:06.528Z,1.82
2018-09-10T12:30:35.317Z,2.10
2018-09-10T12:33:04.184Z,2.00
2018-09-10T12:35:32.993Z,1.95
2018-09-10T12:38:01.849Z,2.08
2018-09-10T12:40:30.617Z,2.60
2018-09-10T12:42:59.374Z,1.98
2018-09-10T12:45:28.153Z,2.17
2018-09-10T12:47:56.959Z,2.20
2018-09-10T12:50:25.748Z,1.90
2018-09-10T12:52:54.662Z,1.90
2018-09-10T12:55:23.468Z,3.77
2018-09-10T12:57:52.297Z,2.22
2018-09-10T13:00:21.104Z,2.00
2018-09-10T13:02:50.012Z,2.10
2018-09-10T13:05:18.795Z,2.10
2018-09-10T13:07:47.657Z,4.00
2018-09-10T13:10:16.425Z,2.50
2018-09-10T13:12:45.205Z,1.70
2018-09-10T13:15:13.988Z,2.17
2018-09-10T13:17:42.828Z,1.80
2018-09-10T13:20:11.759Z,1.90
2018-09-10T13:22:40.516Z,2.00
2018-09-10T13:25:09.377Z,2.25
2018-09-10T13:27:50.160Z,2.50
2018-09-10T13:30:18.980Z,1.95
2018-09-10T13:32:48.144Z,2.10
2018-09-10T13:35:16.952Z,2.08
2018-09-10T13:37:45.778Z,2.10
2018-09-10T13:40:14.648Z,2.30
2018-09-10T13:42:43.668Z,2.00
2018-09-10T13:45:12.532Z,2.10
2018-09-10T13:47:41.320Z,2.10
2018-09-10T13:50:10.144Z,2.10
2018-09-10T13:52:38.963Z,4.53
2018-09-10T13:55:07.851Z,2.20
2018-09-10T13:57:36.764Z,1.75
2018-09-10T14:00:11.037Z,2.27
2018-09-10T14:02:39.838Z,2.22
2018-09-10T14:05:08.634Z,2.20
2018-09-10T14:07:37.715Z,1.70
2018-09-10T14:10:06.573Z,2.20
2018-09-10T14:12:35.500Z,2.40
2018-09-10T14:15:04.340Z,3.25
2018-09-10T14:17:33.140Z,5.92
2018-09-10T14:20:02.050Z,2.40
2018-09-10T14:22:30.852Z,2.15
2018-09-10T14:24:59.922Z,2.40
2018-09-10T14:27:28.752Z,2.52
2018-09-10T14:29:57.596Z,2.37
2018-09-10T14:32:34.151Z,7.65
2018-09-10T14:35:02.980Z,3.05
2018-09-10T14:37:31.860Z,2.30
2018-09-10T14:40:00.680Z,2.50
2018-09-10T14:42:29.483Z,2.50
2018-09-10T14:44:58.288Z,2.10
2018-09-10T14:47:27.098Z,2.35
2018-09-10T14:49:55.906Z,2.40
2018-09-10T14:52:24.715Z,2.35
2018-09-10T14:54:53.502Z,2.65
2018-09-10T14:57:27.502Z,2.87
2018-09-10T14:59:56.604Z,2.08
2018-09-10T15:02:25.412Z,4.60
2018-09-10T15:04:54.216Z,2.15
2018-09-10T15:07:23.044Z,2.30
2018-09-10T15:09:51.845Z,2.35
2018-09-10T15:12:25.994Z,2.35
2018-09-10T15:14:54.791Z,2.20
2018-09-10T15:17:23.603Z,2.20
2018-09-10T15:19:52.409Z,2.50
2018-09-10T15:22:21.256Z,2.40
2018-09-10T15:24:50.079Z,6.53
2018-09-10T15:27:18.940Z,2.60
2018-09-10T15:29:47.780Z,3.40
2018-09-10T15:32:16.893Z,2.35
2018-09-10T15:34:45.739Z,2.10
2018-09-10T15:37:14.459Z,2.27
2018-09-10T15:39:43.577Z,2.15
2018-09-10T15:42:12.344Z,2.00
2018-09-10T15:44:41.232Z,2.50
2018-09-10T15:47:12.060Z,1.95
2018-09-10T15:49:40.913Z,2.58
2018-09-10T15:52:09.897Z,2.00
2018-09-10T15:54:41.908Z,2.25
2018-09-10T15:57:11.856Z,1.90
2018-09-10T15:59:40.692Z,2.33
2018-09-10T16:02:15.057Z,2.35
2018-09-10T16:04:43.876Z,2.20
2018-09-10T16:07:16.434Z,2.95
2018-09-10T16:09:45.186Z,2.75
2018-09-10T16:12:19.035Z,2.50
2018-09-10T16:14:47.831Z,2.70
2018-09-10T16:17:21.607Z,2.33
2018-09-10T16:19:50.395Z,2.45
2018-09-10T16:22:19.211Z,2.95
2018-09-10T16:24:47.992Z,2.40
2018-09-10T16:27:16.998Z,2.50
2018-09-10T16:29:45.779Z,2.30
2018-09-10T16:32:14.539Z,3.90
2018-09-10T16:34:43.360Z,3.35
2018-09-10T16:37:12.280Z,2.52
2018-09-10T16:39:41.083Z,2.60
2018-09-10T16:42:09.917Z,2.83
2018-09-10T16:44:38.712Z,2.22
2018-09-10T16:47:07.508Z,2.83
2018-09-10T16:49:36.332Z,4.35
2018-09-10T16:52:05.171Z,5.50
2018-09-10T16:54:35.122Z,4.17
2018-09-10T16:57:03.885Z,7.12
2018-09-10T16:59:32.672Z,7.50
2018-09-10T17:02:01.457Z,6.10
2018-09-10T17:04:30.320Z,10.23
2018-09-10T17:06:59.157Z,5.25
2018-09-10T17:09:29.008Z,4.22
2018-09-10T17:11:57.807Z,5.30
2018-09-10T17:14:26.599Z,4.42
2018-09-10T17:16:55.401Z,4.72
2018-09-10T17:19:24.298Z,3.23
2018-09-10T17:21:53.028Z,3.67
2018-09-10T17:24:21.831Z,3.80
2018-09-10T17:26:50.648Z,4.00
2018-09-10T17:29:19.637Z,4.60
2018-09-10T17:31:48.449Z,4.73
2018-09-10T17:34:17.341Z,3.53
2018-09-10T17:36:46.168Z,4.20
2018-09-10T17:39:19.116Z,2.90
2018-09-10T17:41:47.980Z,4.30
2018-09-10T17:44:16.752Z,2.60
2018-09-10T17:46:45.657Z,3.40
2018-09-10T17:49:14.559Z,3.20
2018-09-10T17:51:44.684Z,3.27
2018-09-10T17:54:13.514Z,3.73
2018-09-10T17:56:42.351Z,3.73
2018-09-10T17:59:11.211Z,3.43
2018-09-10T18:01:42.088Z,4.43
2018-09-10T18:04:10.888Z,3.03
2018-09-10T18:06:39.766Z,3.70
2018-09-10T18:09:10.000Z,3.30
2018-09-10T18:11:38.891Z,3.40
2018-09-10T18:14:07.806Z,3.80
2018-09-10T18:16:36.597Z,3.50
2018-09-10T18:19:05.381Z,3.30
2018-09-10T18:21:34.852Z,3.13
2018-09-10T18:24:04.289Z,3.83
2018-09-10T18:26:33.087Z,3.43
2018-09-10T18:29:02.063Z,3.57
2018-09-10T18:31:30.840Z,3.00
2018-09-10T18:33:59.647Z,3.17
2018-09-10T18:36:28.437Z,3.83
2018-09-10T18:38:57.244Z,4.60
2018-09-10T18:41:26.080Z,3.47
2018-09-10T18:43:54.868Z,3.77
2018-09-10T18:46:24.328Z,3.30
2018-09-10T18:48:53.194Z,3.10
2018-09-10T18:51:21.944Z,3.40
2018-09-10T18:53:50.779Z,3.53
2018-09-10T18:56:19.698Z,2.90
2018-09-10T18:58:48.616Z,2.93
2018-09-10T19:01:17.623Z,2.90
2018-09-10T19:03:46.379Z,3.17
2018-09-10T19:06:15.275Z,2.50
2018-09-10T19:08:44.060Z,2.80
2018-09-10T19:11:13.029Z,3.93
2018-09-10T19:13:41.864Z,3.63
2018-09-10T19:16:10.728Z,3.10
2018-09-10T19:18:40.902Z,3.00
2018-09-10T19:21:09.993Z,2.90
2018-09-10T19:23:39.368Z,3.50
2018-09-10T19:26:08.191Z,3.30
2018-09-10T19:28:37.139Z,3.33
2018-09-10T19:31:05.955Z,2.93
2018-09-10T19:33:34.807Z,3.27
2018-09-10T19:36:03.623Z,3.00
2018-09-10T19:38:32.456Z,3.03
2018-09-10T19:41:01.308Z,2.87
2018-09-10T19:43:30.120Z,3.20
2018-09-10T19:45:58.981Z,2.80
2018-09-10T19:48:27.800Z,3.40
2018-09-10T19:50:56.642Z,3.00
2018-09-10T19:53:25.465Z,3.00
2018-09-10T19:55:54.368Z,3.47
2018-09-10T19:58:23.201Z,3.93
2018-09-10T20:00:52.020Z,3.23
2018-09-10T20:03:20.851Z,3.73
2018-09-10T20:05:50.312Z,3.70
2018-09-10T20:08:19.103Z,3.60
2018-09-10T20:10:47.912Z,3.20
2018-09-10T20:13:16.715Z,3.20
2018-09-10T20:15:45.550Z,2.80
2018-09-10T20:18:14.380Z,3.43
2018-09-10T20:20:43.196Z,3.00
2018-09-10T20:23:12.008Z,3.00
2018-09-10T20:25:40.884Z,3.30
2018-09-10T20:28:09.678Z,3.10
2018-09-10T20:30:38.621Z,2.80
2018-09-10T20:33:08.656Z,2.93
2018-09-10T20:35:37.612Z,3.03
2018-09-10T20:38:06.801Z,3.07
2018-09-10T20:40:35.633Z,2.90
2018-09-10T20:43:04.479Z,3.03
2018-09-10T20:45:33.322Z,3.47
2018-09-10T20:48:02.159Z,2.80
2018-09-10T20:50:30.947Z,2.97
2018-09-10T20:52:59.978Z,3.23
2018-09-10T20:55:28.860Z,2.87
2018-09-10T20:57:57.725Z,3.10
2018-09-10T21:00:28.996Z,3.03
2018-09-10T21:02:57.777Z,3.13
2018-09-10T21:05:26.592Z,2.60
2018-09-10T21:07:55.593Z,2.53
2018-09-10T21:10:24.552Z,2.60
2018-09-10T21:12:53.344Z,2.93
2018-09-10T21:15:22.234Z,2.50
2018-09-10T21:17:51.103Z,2.43
2018-09-10T21:20:19.984Z,2.73
2018-09-10T21:22:48.800Z,2.63
2018-09-10T21:25:17.683Z,2.97
2018-09-10T21:27:46.540Z,2.87
2018-09-10T21:30:15.370Z,2.60
2018-09-10T21:32:44.163Z,2.67
2018-09-10T21:35:14.535Z,2.63
2018-09-10T21:37:43.387Z,2.77
2018-09-10T21:40:12.418Z,3.13
2018-09-10T21:42:41.285Z,2.77
2018-09-10T21:45:10.163Z,3.33
2018-09-10T21:47:39.040Z,3.00
2018-09-10T21:50:09.327Z,3.50
2018-09-10T21:52:38.352Z,3.20
2018-09-10T21:55:07.577Z,3.10
2018-09-10T21:57:36.379Z,3.07
2018-09-10T22:00:06.405Z,3.00
2018-09-10T22:02:35.345Z,3.03
2018-09-10T22:05:04.400Z,3.20
2018-09-10T22:07:33.306Z,2.83
2018-09-10T22:10:02.156Z,2.90
2018-09-10T22:12:30.903Z,2.93
2018-09-10T22:15:00.317Z,2.80
2018-09-10T22:17:29.358Z,3.30
2018-09-10T22:19:58.152Z,2.63
2018-09-10T22:22:26.981Z,2.77
2018-09-10T22:24:56.563Z,2.77
2018-09-10T22:27:25.407Z,2.87
2018-09-10T22:29:54.193Z,3.03
2018-09-10T22:32:23.009Z,3.20
2018-09-10T22:34:52.174Z,3.37
2018-09-10T22:37:21.025Z,3.30
2018-09-10T22:39:50.013Z,3.83
2018-09-10T22:42:25.358Z,3.47
2018-09-10T22:44:54.338Z,3.40
2018-09-10T22:47:23.472Z,3.23
2018-09-10T22:49:52.645Z,3.63
2018-09-10T22:52:21.556Z,3.00
2018-09-10T22:54:51.066Z,3.60
2018-09-10T22:57:19.896Z,3.13
2018-09-10T22:59:48.896Z,3.90
2018-09-10T23:02:18.138Z,3.10
2018-09-10T23:04:47.336Z,3.20
2018-09-10T23:07:16.178Z,3.60
2018-09-10T23:09:45.442Z,3.27
2018-09-10T23:12:14.566Z,3.23
2018-09-10T23:14:44.103Z,3.20
2018-09-10T23:17:13.713Z,3.20
2018-09-10T23:19:43.136Z,2.90
2018-09-10T23:22:12.369Z,2.90
2018-09-10T23:24:41.368Z,3.27
2018-09-10T23:27:11.021Z,3.10
2018-09-10T23:29:39.943Z,3.07
2018-09-10T23:32:08.875Z,3.43
2018-09-10T23:34:37.859Z,3.57
2018-09-10T23:37:06.685Z,3.20
2018-09-10T23:39:36.351Z,3.13
2018-09-10T23:42:05.285Z,3.07
2018-09-10T23:44:34.112Z,2.93
2018-09-10T23:47:02.912Z,3.47
2018-09-10T23:49:32.013Z,3.23
2018-09-10T23:52:00.819Z,3.50
2018-09-10T23:54:29.620Z,2.70
2018-09-10T23:57:01.164Z,3.00
2018-09-10T23:59:30.157Z,2.83
